sensor_id;sensor_type;location;lat;lon;timestamp;P1;durP1;ratioP1;P2;durP2;ratioP2
46339;SDS011;47273;49.274;8.708;2022-09-24T04:02:37;19.20;;;17.45;;
46339;SDS011;47273;49.274;8.708;2022-09-24T04:05:04;19.77;;;18.05;;
46339;SDS011;47273;49.274;8.708;2022-09-24T04:07:31;19.90;;;18.17;;
46339;SDS011;47273;49.274;8.708;2022-09-24T04:09:57;18.83;;;17.23;;
46339;SDS011;47273;49.274;8.708;2022-09-24T04:12:22;18.30;;;16.55;;
46339;SDS011;47273;49.274;8.708;2022-09-24T04:14:48;17.92;;;16.23;;
46339;SDS011;47273;49.274;8.708;2022-09-24T04:17:14;18.65;;;16.85;;
46339;SDS011;47273;49.274;8.708;2022-09-24T04:19:41;18.42;;;16.90;;
46339;SDS011;47273;49.274;8.708;2022-09-24T04:22:08;19.02;;;17.33;;
46339;SDS011;47273;49.274;8.708;2022-09-24T04:24:33;18.65;;;16.95;;
46339;SDS011;47273;49.274;8.708;2022-09-24T04:26:59;19.00;;;17.40;;
46339;SDS011;47273;49.274;8.708;2022-09-24T04:29:25;18.17;;;16.58;;
46339;SDS011;47273;49.274;8.708;2022-09-24T04:31:53;19.15;;;17.42;;
46339;SDS011;47273;49.274;8.708;2022-09-24T04:34:18;19.23;;;17.13;;
46339;SDS011;47273;49.274;8.708;2022-09-24T04:36:45;19.08;;;17.17;;
46339;SDS011;47273;49.274;8.708;2022-09-24T04:39:11;18.80;;;16.70;;
46339;SDS011;47273;49.274;8.708;2022-09-24T04:41:37;18.70;;;16.80;;
46339;SDS011;47273;49.274;8.708;2022-09-24T04:44:04;19.85;;;17.98;;
46339;SDS011;47273;49.274;8.708;2022-09-24T04:46:30;22.90;;;18.23;;
46339;SDS011;47273;49.274;8.708;2022-09-24T04:48:58;21.02;;;19.08;;
46339;SDS011;47273;49.274;8.708;2022-09-24T04:51:26;23.13;;;20.67;;
46339;SDS011;47273;49.274;8.708;2022-09-24T04:53:52;20.73;;;18.92;;
46339;SDS011;47273;49.274;8.708;2022-09-24T04:56:18;21.23;;;19.10;;
46339;SDS011;47273;49.274;8.708;2022-09-24T04:58:43;21.45;;;18.55;;
46339;SDS011;47273;49.274;8.708;2022-09-24T05:01:14;19.70;;;17.95;;
46339;SDS011;47273;49.274;8.708;2022-09-24T05:03:57;19.05;;;17.02;;
46339;SDS011;47273;49.274;8.708;2022-09-24T05:06:28;18.85;;;17.15;;
46339;SDS011;47273;49.274;8.708;2022-09-24T05:09:03;19.23;;;17.33;;
46339;SDS011;47273;49.274;8.708;2022-09-24T05:11:32;18.85;;;17.00;;
46339;SDS011;47273;49.274;8.708;2022-09-24T05:14:01;19.70;;;17.75;;
46339;SDS011;47273;49.274;8.708;2022-09-24T05:16:36;19.60;;;17.83;;
46339;SDS011;47273;49.274;8.708;2022-09-24T05:19:03;19.85;;;16.88;;
46339;SDS011;47273;49.274;8.708;2022-09-24T05:21:40;19.83;;;17.20;;
46339;SDS011;47273;49.274;8.708;2022-09-24T05:24:08;22.73;;;18.80;;
46339;SDS011;47273;49.274;8.708;2022-09-24T05:26:34;20.33;;;18.40;;
46339;SDS011;47273;49.274;8.708;2022-09-24T05:29:18;22.90;;;17.40;;
46339;SDS011;47273;49.274;8.708;2022-09-24T05:31:47;19.08;;;17.25;;
46339;SDS011;47273;49.274;8.708;2022-09-24T05:34:12;20.52;;;18.73;;
46339;SDS011;47273;49.274;8.708;2022-09-24T05:36:38;20.85;;;18.83;;
46339;SDS011;47273;49.274;8.708;2022-09-24T05:39:10;20.88;;;18.88;;
46339;SDS011;47273;49.274;8.708;2022-09-24T05:41:45;20.13;;;18.45;;
46339;SDS011;47273;49.274;8.708;2022-09-24T05:44:10;21.33;;;19.35;;
46339;SDS011;47273;49.274;8.708;2022-09-24T05:46:36;22.83;;;20.45;;
46339;SDS011;47273;49.274;8.708;2022-09-24T05:49:04;21.67;;;19.60;;
46339;SDS011;47273;49.274;8.708;2022-09-24T05:51:30;24.10;;;20.10;;
46339;SDS011;47273;49.274;8.708;2022-09-24T05:53:55;22.17;;;19.75;;
46339;SDS011;47273;49.274;8.708;2022-09-24T05:56:21;21.48;;;19.25;;
46339;SDS011;47273;49.274;8.708;2022-09-24T05:58:48;21.27;;;19.17;;
46339;SDS011;47273;49.274;8.708;2022-09-24T06:01:14;21.88;;;19.55;;
46339;SDS011;47273;49.274;8.708;2022-09-24T06:03:40;25.55;;;20.60;;
46339;SDS011;47273;49.274;8.708;2022-09-24T06:06:06;23.23;;;20.05;;
46339;SDS011;47273;49.274;8.708;2022-09-24T06:08:32;25.02;;;20.88;;
46339;SDS011;47273;49.274;8.708;2022-09-24T06:11:01;24.30;;;20.15;;
46339;SDS011;47273;49.274;8.708;2022-09-24T06:13:29;23.08;;;20.65;;
46339;SDS011;47273;49.274;8.708;2022-09-24T06:16:13;22.05;;;19.85;;
46339;SDS011;47273;49.274;8.708;2022-09-24T06:18:40;23.30;;;20.75;;
46339;SDS011;47273;49.274;8.708;2022-09-24T06:21:14;29.25;;;20.20;;
46339;SDS011;47273;49.274;8.708;2022-09-24T06:23:50;21.92;;;19.73;;
46339;SDS011;47273;49.274;8.708;2022-09-24T06:26:16;24.00;;;20.30;;
46339;SDS011;47273;49.274;8.708;2022-09-24T06:28:42;21.83;;;19.73;;
46339;SDS011;47273;49.274;8.708;2022-09-24T06:31:08;22.67;;;20.52;;
46339;SDS011;47273;49.274;8.708;2022-09-24T06:33:35;22.80;;;20.38;;
46339;SDS011;47273;49.274;8.708;2022-09-24T06:36:02;23.10;;;20.90;;
46339;SDS011;47273;49.274;8.708;2022-09-24T06:38:29;23.27;;;21.05;;
46339;SDS011;47273;49.274;8.708;2022-09-24T06:41:02;22.70;;;20.50;;
46339;SDS011;47273;49.274;8.708;2022-09-24T06:43:29;21.88;;;19.55;;
46339;SDS011;47273;49.274;8.708;2022-09-24T06:45:55;22.42;;;20.13;;
46339;SDS011;47273;49.274;8.708;2022-09-24T06:48:25;22.15;;;19.95;;
46339;SDS011;47273;49.274;8.708;2022-09-24T06:50:54;20.13;;;18.20;;
46339;SDS011;47273;49.274;8.708;2022-09-24T06:53:20;20.10;;;18.20;;
46339;SDS011;47273;49.274;8.708;2022-09-24T06:55:46;20.27;;;18.17;;
46339;SDS011;47273;49.274;8.708;2022-09-24T06:58:19;21.13;;;19.08;;
46339;SDS011;47273;49.274;8.708;2022-09-24T07:00:55;23.75;;;18.70;;
46339;SDS011;47273;49.274;8.708;2022-09-24T07:03:22;20.23;;;18.42;;
46339;SDS011;47273;49.274;8.708;2022-09-24T07:05:49;20.50;;;18.40;;
46339;SDS011;47273;49.274;8.708;2022-09-24T07:08:15;22.42;;;20.08;;
46339;SDS011;47273;49.274;8.708;2022-09-24T07:10:44;26.55;;;21.73;;
46339;SDS011;47273;49.274;8.708;2022-09-24T07:13:13;23.67;;;21.27;;
46339;SDS011;47273;49.274;8.708;2022-09-24T07:15:40;23.20;;;20.95;;
46339;SDS011;47273;49.274;8.708;2022-09-24T07:18:06;24.95;;;19.90;;
46339;SDS011;47273;49.274;8.708;2022-09-24T07:20:33;21.63;;;19.55;;
46339;SDS011;47273;49.274;8.708;2022-09-24T07:23:01;21.10;;;19.20;;
46339;SDS011;47273;49.274;8.708;2022-09-24T07:25:30;21.45;;;19.38;;
46339;SDS011;47273;49.274;8.708;2022-09-24T07:27:59;19.77;;;17.88;;
46339;SDS011;47273;49.274;8.708;2022-09-24T07:30:27;20.90;;;18.77;;
46339;SDS011;47273;49.274;8.708;2022-09-24T07:32:56;19.40;;;17.80;;
46339;SDS011;47273;49.274;8.708;2022-09-24T07:35:28;20.73;;;18.75;;
46339;SDS011;47273;49.274;8.708;2022-09-24T07:38:00;21.42;;;19.25;;
46339;SDS011;47273;49.274;8.708;2022-09-24T07:40:28;21.15;;;18.95;;
46339;SDS011;47273;49.274;8.708;2022-09-24T07:42:55;24.38;;;19.33;;
46339;SDS011;47273;49.274;8.708;2022-09-24T07:45:24;22.58;;;20.20;;
46339;SDS011;47273;49.274;8.708;2022-09-24T07:47:57;22.48;;;19.63;;
46339;SDS011;47273;49.274;8.708;2022-09-24T07:50:28;22.38;;;20.13;;
46339;SDS011;47273;49.274;8.708;2022-09-24T07:52:55;22.48;;;19.58;;
46339;SDS011;47273;49.274;8.708;2022-09-24T07:55:21;22.85;;;20.67;;
46339;SDS011;47273;49.274;8.708;2022-09-24T07:57:51;23.75;;;21.05;;
46339;SDS011;47273;49.274;8.708;2022-09-24T08:00:20;21.73;;;19.83;;
46339;SDS011;47273;49.274;8.708;2022-09-24T08:02:47;21.65;;;19.35;;
46339;SDS011;47273;49.274;8.708;2022-09-24T08:05:14;22.45;;;20.15;;
46339;SDS011;47273;49.274;8.708;2022-09-24T08:07:54;22.13;;;19.77;;
46339;SDS011;47273;49.274;8.708;2022-09-24T08:10:22;23.25;;;20.75;;
46339;SDS011;47273;49.274;8.708;2022-09-24T08:12:49;27.98;;;21.35;;
46339;SDS011;47273;49.274;8.708;2022-09-24T08:15:15;24.08;;;21.67;;
46339;SDS011;47273;49.274;8.708;2022-09-24T08:17:41;29.60;;;20.77;;
46339;SDS011;47273;49.274;8.708;2022-09-24T08:20:06;24.15;;;21.65;;
46339;SDS011;47273;49.274;8.708;2022-09-24T08:22:36;23.65;;;21.30;;
46339;SDS011;47273;49.274;8.708;2022-09-24T08:25:02;22.33;;;20.05;;
46339;SDS011;47273;49.274;8.708;2022-09-24T08:28:17;22.48;;;20.30;;
46339;SDS011;47273;49.274;8.708;2022-09-24T08:30:43;26.63;;;21.35;;
46339;SDS011;47273;49.274;8.708;2022-09-24T08:40:30;22.27;;;19.85;;
46339;SDS011;47273;49.274;8.708;2022-09-24T08:45:48;21.33;;;19.25;;
46339;SDS011;47273;49.274;8.708;2022-09-24T08:48:37;22.40;;;20.30;;
46339;SDS011;47273;49.274;8.708;2022-09-24T08:51:11;23.17;;;20.83;;
46339;SDS011;47273;49.274;8.708;2022-09-24T08:54:02;26.55;;;20.15;;
46339;SDS011;47273;49.274;8.708;2022-09-24T08:56:33;22.92;;;20.80;;
46339;SDS011;47273;49.274;8.708;2022-09-24T09:02:00;22.27;;;20.05;;
46339;SDS011;47273;49.274;8.708;2022-09-24T09:07:24;20.70;;;18.90;;
46339;SDS011;47273;49.274;8.708;2022-09-24T09:09:57;27.40;;;20.65;;
46339;SDS011;47273;49.274;8.708;2022-09-24T09:12:34;20.95;;;18.77;;
46339;SDS011;47273;49.274;8.708;2022-09-24T09:15:10;21.67;;;19.65;;
46339;SDS011;47273;49.274;8.708;2022-09-24T09:17:42;26.55;;;20.92;;
46339;SDS011;47273;49.274;8.708;2022-09-24T09:20:34;23.00;;;20.73;;
46339;SDS011;47273;49.274;8.708;2022-09-24T09:23:03;22.80;;;20.45;;
46339;SDS011;47273;49.274;8.708;2022-09-24T09:25:37;23.17;;;20.77;;
46339;SDS011;47273;49.274;8.708;2022-09-24T09:28:13;21.98;;;20.10;;
46339;SDS011;47273;49.274;8.708;2022-09-24T09:39:10;21.00;;;18.48;;
46339;SDS011;47273;49.274;8.708;2022-09-24T09:42:27;21.80;;;19.95;;
46339;SDS011;47273;49.274;8.708;2022-09-24T09:44:51;19.00;;;17.40;;
46339;SDS011;47273;49.274;8.708;2022-09-24T09:50:09;18.63;;;17.02;;
46339;SDS011;47273;49.274;8.708;2022-09-24T09:52:55;18.80;;;17.20;;
46339;SDS011;47273;49.274;8.708;2022-09-24T09:58:09;21.88;;;17.13;;
46339;SDS011;47273;49.274;8.708;2022-09-24T10:00:45;19.02;;;17.25;;
46339;SDS011;47273;49.274;8.708;2022-09-24T10:09:39;19.30;;;17.25;;
46339;SDS011;47273;49.274;8.708;2022-09-24T10:15:17;18.83;;;17.20;;
46339;SDS011;47273;49.274;8.708;2022-09-24T10:17:53;19.40;;;17.60;;
46339;SDS011;47273;49.274;8.708;2022-09-24T10:24:39;18.05;;;16.60;;
46339;SDS011;47273;49.274;8.708;2022-09-24T10:35:29;17.33;;;15.98;;
46339;SDS011;47273;49.274;8.708;2022-09-24T11:11:17;19.80;;;17.75;;
46339;SDS011;47273;49.274;8.708;2022-09-24T11:59:20;18.58;;;17.02;;
46339;SDS011;47273;49.274;8.708;2022-09-24T12:37:14;19.60;;;17.83;;
46339;SDS011;47273;49.274;8.708;2022-09-24T12:46:56;19.52;;;17.95;;
46339;SDS011;47273;49.274;8.708;2022-09-24T12:50:18;19.70;;;17.85;;
46339;SDS011;47273;49.274;8.708;2022-09-24T13:32:00;18.65;;;17.02;;
46339;SDS011;47273;49.274;8.708;2022-09-24T13:38:47;17.98;;;16.27;;
46339;SDS011;47273;49.274;8.708;2022-09-24T13:45:10;17.60;;;16.20;;
46339;SDS011;47273;49.274;8.708;2022-09-24T14:09:36;17.65;;;16.15;;
46339;SDS011;47273;49.274;8.708;2022-09-24T14:16:06;18.10;;;16.80;;
46339;SDS011;47273;49.274;8.708;2022-09-24T14:19:04;18.23;;;16.30;;
46339;SDS011;47273;49.274;8.708;2022-09-24T14:22:27;17.02;;;15.63;;
46339;SDS011;47273;49.274;8.708;2022-09-24T14:25:27;17.27;;;15.93;;
46339;SDS011;47273;49.274;8.708;2022-09-24T14:28:46;17.73;;;16.40;;
46339;SDS011;47273;49.274;8.708;2022-09-24T14:31:57;18.17;;;16.58;;
46339;SDS011;47273;49.274;8.708;2022-09-24T14:34:53;17.13;;;15.85;;
46339;SDS011;47273;49.274;8.708;2022-09-24T14:38:13;18.27;;;16.48;;
46339;SDS011;47273;49.274;8.708;2022-09-24T14:41:41;17.20;;;15.90;;
46339;SDS011;47273;49.274;8.708;2022-09-24T14:44:38;17.55;;;16.15;;
46339;SDS011;47273;49.274;8.708;2022-09-24T15:01:03;18.05;;;16.38;;
46339;SDS011;47273;49.274;8.708;2022-09-24T15:04:01;17.05;;;15.57;;
46339;SDS011;47273;49.274;8.708;2022-09-24T15:07:12;17.17;;;15.88;;
46339;SDS011;47273;49.274;8.708;2022-09-24T15:10:23;17.40;;;15.90;;
46339;SDS011;47273;49.274;8.708;2022-09-24T16:05:49;17.95;;;16.52;;
46339;SDS011;47273;49.274;8.708;2022-09-24T16:29:38;17.52;;;16.05;;
46339;SDS011;47273;49.274;8.708;2022-09-24T16:32:42;17.95;;;16.27;;
46339;SDS011;47273;49.274;8.708;2022-09-24T16:35:41;18.45;;;16.75;;
46339;SDS011;47273;49.274;8.708;2022-09-24T16:38:49;17.52;;;16.15;;
46339;SDS011;47273;49.274;8.708;2022-09-24T16:41:40;18.25;;;16.67;;
46339;SDS011;47273;49.274;8.708;2022-09-24T17:12:06;19.58;;;16.60;;
46339;SDS011;47273;49.274;8.708;2022-09-24T17:15:27;17.88;;;16.30;;
46339;SDS011;47273;49.274;8.708;2022-09-24T17:32:53;18.13;;;16.65;;
46339;SDS011;47273;49.274;8.708;2022-09-24T17:57:01;19.10;;;17.20;;
46339;SDS011;47273;49.274;8.708;2022-09-24T18:03:31;22.88;;;17.70;;
46339;SDS011;47273;49.274;8.708;2022-09-24T18:07:01;19.23;;;17.60;;
46339;SDS011;47273;49.274;8.708;2022-09-24T18:19:46;21.92;;;19.38;;
46339;SDS011;47273;49.274;8.708;2022-09-24T18:22:58;22.40;;;20.10;;
46339;SDS011;47273;49.274;8.708;2022-09-24T18:25:47;22.17;;;19.90;;
46339;SDS011;47273;49.274;8.708;2022-09-24T18:50:01;27.58;;;19.15;;
46339;SDS011;47273;49.274;8.708;2022-09-24T19:41:53;21.60;;;17.02;;
46339;SDS011;47273;49.274;8.708;2022-09-24T19:44:57;18.50;;;16.70;;
46339;SDS011;47273;49.274;8.708;2022-09-24T20:26:51;17.50;;;15.85;;
46339;SDS011;47273;49.274;8.708;2022-09-24T20:30:09;17.33;;;15.63;;
46339;SDS011;47273;49.274;8.708;2022-09-24T20:43:32;17.33;;;15.82;;
46339;SDS011;47273;49.274;8.708;2022-09-24T20:59:55;17.92;;;16.25;;
46339;SDS011;47273;49.274;8.708;2022-09-24T21:09:36;18.60;;;16.38;;
46339;SDS011;47273;49.274;8.708;2022-09-24T21:12:42;17.73;;;16.05;;
46339;SDS011;47273;49.274;8.708;2022-09-24T21:33:16;18.90;;;17.25;;
46339;SDS011;47273;49.274;8.708;2022-09-24T21:39:42;19.33;;;17.48;;
46339;SDS011;47273;49.274;8.708;2022-09-24T21:46:31;20.35;;;18.23;;
